createdAt,value
2018-01-25T00:00:27.288Z,85.98
2018-01-25T00:02:55.193Z,86.09
2018-01-25T00:05:23.123Z,86.94
2018-01-25T00:07:51.049Z,87.61
2018-01-25T00:10:18.955Z,87.48
2018-01-25T00:12:46.906Z,86.74
2018-01-25T00:15:14.863Z,86.89
2018-01-25T00:17:42.814Z,86.69
2018-01-25T00:20:10.714Z,87.12
2018-01-25T00:22:38.641Z,87.07
2018-01-25T00:25:06.548Z,87.28
2018-01-25T00:27:34.479Z,87.15
2018-01-25T00:30:02.465Z,86.62
2018-01-25T00:32:30.381Z,86.54
2018-01-25T00:34:58.310Z,86.41
2018-01-25T00:37:26.212Z,87.37
2018-01-25T00:39:54.124Z,87.26
2018-01-25T00:42:22.057Z,87.67
2018-01-25T00:44:49.963Z,88.05
2018-01-25T00:47:17.885Z,87.61
2018-01-25T00:49:45.858Z,88.22
2018-01-25T00:52:13.786Z,87.96
2018-01-25T00:54:41.706Z,87.80
2018-01-25T00:57:09.661Z,86.96
2018-01-25T00:59:37.562Z,87.86
2018-01-25T01:02:05.612Z,88.35
2018-01-25T01:04:33.530Z,88.53
2018-01-25T01:07:01.423Z,87.88
2018-01-25T01:09:29.643Z,88.52
2018-01-25T01:11:57.717Z,88.92
2018-01-25T01:14:25.585Z,89.64
2018-01-25T01:16:53.526Z,88.48
2018-01-25T01:19:21.466Z,89.23
2018-01-25T01:21:49.377Z,89.09
2018-01-25T01:24:17.293Z,88.80
2018-01-25T01:26:45.277Z,89.73
2018-01-25T01:29:13.239Z,89.31
2018-01-25T01:31:41.157Z,89.22
2018-01-25T01:34:09.098Z,89.69
2018-01-25T01:36:37.025Z,89.60
2018-01-25T01:39:04.998Z,90.59
2018-01-25T01:41:32.942Z,90.44
2018-01-25T01:44:00.896Z,90.69
2018-01-25T01:46:28.869Z,91.05
2018-01-25T01:48:56.795Z,90.91
2018-01-25T01:51:24.744Z,91.14
2018-01-25T01:53:52.649Z,91.08
2018-01-25T01:56:20.618Z,91.50
2018-01-25T01:58:48.555Z,91.42
2018-01-25T02:01:16.493Z,91.82
2018-01-25T02:03:44.407Z,91.63
2018-01-25T02:06:12.338Z,90.98
2018-01-25T02:08:40.280Z,90.49
2018-01-25T02:11:08.194Z,90.98
2018-01-25T02:13:36.134Z,90.50
2018-01-25T02:16:04.044Z,90.27
2018-01-25T02:18:32.036Z,91.12
2018-01-25T02:21:00.038Z,91.24
2018-01-25T02:23:28.902Z,91.43
2018-01-25T02:25:56.828Z,91.40
2018-01-25T02:28:24.752Z,91.46
2018-01-25T02:30:52.670Z,91.36
2018-01-25T02:33:20.636Z,91.11
2018-01-25T02:35:48.536Z,90.97
2018-01-25T02:38:16.732Z,90.81
2018-01-25T02:40:44.596Z,90.94
2018-01-25T02:43:12.521Z,90.37
2018-01-25T02:45:40.458Z,90.92
2018-01-25T02:48:08.506Z,90.61
2018-01-25T02:50:36.428Z,91.05
2018-01-25T02:53:04.342Z,91.43
2018-01-25T02:55:32.289Z,89.57
2018-01-25T02:58:00.200Z,90.87
2018-01-25T03:00:28.101Z,90.73
2018-01-25T03:02:56.008Z,90.63
2018-01-25T03:05:23.921Z,90.66
2018-01-25T03:07:51.874Z,90.44
2018-01-25T03:10:19.798Z,90.99
2018-01-25T03:12:47.728Z,90.50
2018-01-25T03:15:15.617Z,91.79
2018-01-25T03:17:43.542Z,91.21
2018-01-25T03:20:11.472Z,91.65
2018-01-25T03:22:39.387Z,91.55
2018-01-25T03:25:07.430Z,91.98
2018-01-25T03:27:35.320Z,92.11
2018-01-25T03:30:03.247Z,91.29
2018-01-25T03:32:31.174Z,91.47
2018-01-25T03:34:59.089Z,91.74
2018-01-25T03:37:26.997Z,91.00
2018-01-25T03:39:54.932Z,90.47
2018-01-25T03:42:22.934Z,90.93
2018-01-25T03:44:50.844Z,91.20
2018-01-25T03:47:18.770Z,90.83
2018-01-25T03:49:46.692Z,90.79
2018-01-25T03:52:14.623Z,90.28
2018-01-25T03:54:42.530Z,90.26
2018-01-25T03:57:10.499Z,90.21
2018-01-25T03:59:38.581Z,89.79
2018-01-25T04:02:06.474Z,89.90
2018-01-25T04:04:34.385Z,90.10
2018-01-25T04:07:02.339Z,90.18
2018-01-25T04:09:30.220Z,89.61
2018-01-25T04:11:58.151Z,89.95
2018-01-25T04:14:26.097Z,89.73
2018-01-25T04:16:54.069Z,89.77
2018-01-25T04:19:21.997Z,89.50
2018-01-25T04:21:49.992Z,89.77
2018-01-25T04:24:17.902Z,89.70
2018-01-25T04:26:45.830Z,89.64
2018-01-25T04:29:13.757Z,89.30
2018-01-25T04:31:41.681Z,89.14
2018-01-25T04:34:09.605Z,89.34
2018-01-25T04:36:37.562Z,89.03
2018-01-25T04:39:05.473Z,89.12
2018-01-25T04:41:33.399Z,88.66
2018-01-25T04:44:01.305Z,88.43
2018-01-25T04:46:29.214Z,89.42
2018-01-25T04:48:57.146Z,89.89
2018-01-25T04:51:25.086Z,88.44
2018-01-25T04:53:53.368Z,88.59
2018-01-25T04:56:21.275Z,88.45
2018-01-25T04:58:49.197Z,88.54
2018-01-25T05:01:17.108Z,88.37
2018-01-25T05:03:45.040Z,88.77
2018-01-25T05:06:12.997Z,89.33
2018-01-25T05:08:40.919Z,88.51
2018-01-25T05:11:08.874Z,89.05
2018-01-25T05:13:36.783Z,88.26
2018-01-25T05:16:04.706Z,88.76
2018-01-25T05:18:32.609Z,88.22
2018-01-25T05:21:01.053Z,88.18
2018-01-25T05:23:28.962Z,87.51
2018-01-25T05:25:56.894Z,87.64
2018-01-25T05:28:24.811Z,87.60
2018-01-25T05:30:52.749Z,86.76
2018-01-25T05:33:20.670Z,87.38
2018-01-25T05:35:48.620Z,87.35
2018-01-25T05:38:16.525Z,87.27
2018-01-25T05:40:44.460Z,86.67
2018-01-25T05:43:12.382Z,86.44
2018-01-25T05:45:40.298Z,86.69
2018-01-25T05:48:08.229Z,86.75
2018-01-25T05:50:36.172Z,86.96
2018-01-25T05:53:04.717Z,87.35
2018-01-25T05:55:32.622Z,86.48
2018-01-25T05:58:00.558Z,86.40
2018-01-25T06:00:28.457Z,86.48
2018-01-25T06:02:56.382Z,86.99
2018-01-25T06:05:24.304Z,87.01
2018-01-25T06:07:52.241Z,86.47
2018-01-25T06:10:20.206Z,86.77
2018-01-25T06:12:48.120Z,86.44
2018-01-25T06:15:16.045Z,85.96
2018-01-25T06:17:43.973Z,86.57
2018-01-25T06:20:11.905Z,86.04
2018-01-25T06:22:39.831Z,85.82
2018-01-25T06:25:07.785Z,86.09
2018-01-25T06:27:35.705Z,86.20
2018-01-25T06:30:03.639Z,86.26
2018-01-25T06:32:31.542Z,86.68
2018-01-25T06:34:59.458Z,86.70
2018-01-25T06:37:27.405Z,86.27
2018-01-25T06:39:55.347Z,86.58
2018-01-25T06:42:23.260Z,87.00
2018-01-25T06:44:51.189Z,86.46
2018-01-25T06:47:19.085Z,86.07
2018-01-25T06:49:47.051Z,86.42
2018-01-25T06:52:15.026Z,86.22
2018-01-25T06:54:42.991Z,85.77
2018-01-25T06:57:10.945Z,86.85
2018-01-25T06:59:38.907Z,86.89
2018-01-25T07:02:06.872Z,87.01
2018-01-25T07:04:34.810Z,86.63
2018-01-25T07:07:03.133Z,87.15
2018-01-25T07:09:31.202Z,86.90
2018-01-25T07:11:59.140Z,86.60
2018-01-25T07:14:27.129Z,86.32
2018-01-25T07:16:55.886Z,86.86
2018-01-25T07:19:23.817Z,87.15
2018-01-25T07:21:51.784Z,87.37
2018-01-25T07:24:19.693Z,87.35
2018-01-25T07:26:47.610Z,88.18
2018-01-25T07:29:15.553Z,87.54
2018-01-25T07:31:43.466Z,87.08
2018-01-25T07:34:11.431Z,86.67
2018-01-25T07:36:39.353Z,87.61
2018-01-25T07:39:07.332Z,86.83
2018-01-25T07:41:35.261Z,87.41
2018-01-25T07:44:03.267Z,87.69
2018-01-25T07:46:31.406Z,87.98
2018-01-25T07:48:59.380Z,87.32
2018-01-25T07:51:27.282Z,87.48
2018-01-25T07:53:55.260Z,88.06
2018-01-25T07:56:23.185Z,88.09
2018-01-25T07:58:51.126Z,88.30
2018-01-25T08:01:19.100Z,88.21
2018-01-25T08:03:47.071Z,87.39
2018-01-25T08:06:15.000Z,87.67
2018-01-25T08:08:42.981Z,87.21
2018-01-25T08:11:10.993Z,87.80
2018-01-25T08:13:39.696Z,88.20
2018-01-25T08:16:13.286Z,87.85
2018-01-25T08:18:41.239Z,87.73
2018-01-25T08:21:09.161Z,87.07
2018-01-25T08:23:37.863Z,86.09
2018-01-25T08:26:05.766Z,86.15
2018-01-25T08:28:33.735Z,86.11
2018-01-25T08:31:01.987Z,85.11
2018-01-25T08:33:29.959Z,85.66
2018-01-25T08:35:57.911Z,84.90
2018-01-25T08:38:25.983Z,84.58
2018-01-25T08:40:53.898Z,85.15
2018-01-25T08:43:21.872Z,85.32
2018-01-25T08:45:49.971Z,85.23
2018-01-25T08:48:17.904Z,85.70
2018-01-25T08:50:45.845Z,86.29
2018-01-25T08:53:13.803Z,86.01
2018-01-25T08:55:41.837Z,86.23
2018-01-25T08:58:09.788Z,86.23
2018-01-25T09:00:37.722Z,84.95
2018-01-25T09:03:05.702Z,85.22
2018-01-25T09:05:33.665Z,85.58
2018-01-25T09:08:02.104Z,84.93
2018-01-25T09:10:30.051Z,85.64
2018-01-25T09:12:57.978Z,85.55
2018-01-25T09:15:25.884Z,87.13
2018-01-25T09:17:53.819Z,84.45
2018-01-25T09:20:21.795Z,83.04
2018-01-25T09:22:49.765Z,83.80
2018-01-25T09:25:17.718Z,82.97
2018-01-25T09:27:45.625Z,83.03
2018-01-25T09:30:13.562Z,82.65
2018-01-25T09:32:41.502Z,83.42
2018-01-25T09:35:09.507Z,83.14
2018-01-25T09:37:37.909Z,83.89
2018-01-25T09:40:05.901Z,83.53
2018-01-25T09:42:33.878Z,83.68
2018-01-25T09:45:01.898Z,82.38
2018-01-25T09:47:29.821Z,83.12
2018-01-25T09:49:57.734Z,84.16
2018-01-25T09:52:26.045Z,83.85
2018-01-25T09:54:53.991Z,83.10
2018-01-25T09:57:22.010Z,83.02
2018-01-25T09:59:49.937Z,82.51
2018-01-25T10:02:17.862Z,82.81
2018-01-25T10:04:45.785Z,82.90
2018-01-25T10:07:13.741Z,83.21
2018-01-25T10:09:41.666Z,82.46
2018-01-25T10:12:09.694Z,82.02
2018-01-25T10:14:37.864Z,82.30
2018-01-25T10:17:05.789Z,82.43
2018-01-25T10:19:33.697Z,81.45
2018-01-25T10:22:02.438Z,81.10
2018-01-25T10:24:30.367Z,80.69
2018-01-25T10:26:58.298Z,80.87
2018-01-25T10:29:26.204Z,80.48
2018-01-25T10:31:54.380Z,80.39
2018-01-25T10:34:22.306Z,79.99
2018-01-25T10:36:50.226Z,80.80
2018-01-25T10:39:18.162Z,80.65
2018-01-25T10:41:46.085Z,80.47
2018-01-25T10:44:14.046Z,80.22
2018-01-25T10:46:41.949Z,79.90
2018-01-25T10:49:09.894Z,79.50
2018-01-25T10:51:37.837Z,79.40
2018-01-25T10:54:05.866Z,78.82
2018-01-25T10:56:33.957Z,78.86
2018-01-25T10:59:01.996Z,78.56
2018-01-25T11:01:35.661Z,79.57
2018-01-25T11:04:03.653Z,78.81
2018-01-25T11:06:32.587Z,77.89
2018-01-25T11:09:00.554Z,76.64
2018-01-25T11:11:28.459Z,78.27
2018-01-25T11:13:56.388Z,77.29
2018-01-25T11:16:24.298Z,77.44
2018-01-25T11:18:52.265Z,76.84
2018-01-25T11:21:20.201Z,76.89
2018-01-25T11:23:48.367Z,75.71
2018-01-25T11:26:16.345Z,75.43
2018-01-25T11:28:44.310Z,75.43
2018-01-25T11:31:12.250Z,74.73
2018-01-25T11:33:40.161Z,76.55
2018-01-25T11:36:08.113Z,75.09
2018-01-25T11:38:36.131Z,75.69
2018-01-25T11:41:04.066Z,75.09
2018-01-25T11:43:32.165Z,74.17
2018-01-25T11:46:00.138Z,75.50
2018-01-25T11:48:28.825Z,76.00
2018-01-25T11:50:56.767Z,75.85
2018-01-25T11:53:24.717Z,75.12
2018-01-25T11:55:53.754Z,74.15
2018-01-25T11:58:21.678Z,72.97
2018-01-25T12:00:49.723Z,73.02
2018-01-25T12:03:17.628Z,72.09
2018-01-25T12:05:45.664Z,73.23
2018-01-25T12:08:13.527Z,73.51
2018-01-25T12:10:41.499Z,73.03
2018-01-25T12:13:09.436Z,73.15
2018-01-25T12:15:37.366Z,74.38
2018-01-25T12:18:05.285Z,74.92
2018-01-25T12:20:33.213Z,75.14
2018-01-25T12:23:01.986Z,74.52
2018-01-25T12:25:29.923Z,75.41
2018-01-25T12:27:57.823Z,75.77
2018-01-25T12:30:25.801Z,75.06
2018-01-25T12:32:53.707Z,75.70
2018-01-25T12:35:21.680Z,75.61
2018-01-25T12:37:49.614Z,76.07
2018-01-25T12:40:17.551Z,75.49
2018-01-25T12:42:45.489Z,75.85
2018-01-25T12:45:13.422Z,75.89
2018-01-25T12:47:41.373Z,75.86
2018-01-25T12:50:09.279Z,75.05
2018-01-25T12:52:37.223Z,75.11
2018-01-25T12:55:05.137Z,74.99
2018-01-25T12:57:33.111Z,74.12
2018-01-25T13:00:01.141Z,75.02
2018-01-25T13:02:29.068Z,74.74
2018-01-25T13:04:57.031Z,75.31
2018-01-25T13:07:24.979Z,75.97
2018-01-25T13:09:52.873Z,75.71
2018-01-25T13:12:20.777Z,75.27
2018-01-25T13:14:48.949Z,74.91
2018-01-25T13:17:16.966Z,75.99
2018-01-25T13:19:44.973Z,75.83
2018-01-25T13:22:12.893Z,75.76
2018-01-25T13:24:40.844Z,75.28
2018-01-25T13:27:08.877Z,76.23
2018-01-25T13:29:36.715Z,75.89
2018-01-25T13:32:04.651Z,76.47
2018-01-25T13:34:32.552Z,75.70
2018-01-25T13:37:00.474Z,75.16
2018-01-25T13:39:28.446Z,74.49
2018-01-25T13:41:56.391Z,75.29
2018-01-25T13:44:24.468Z,75.16
2018-01-25T13:46:52.406Z,75.05
2018-01-25T13:49:20.722Z,74.86
2018-01-25T13:51:48.617Z,75.12
2018-01-25T13:54:16.550Z,75.05
2018-01-25T13:56:44.554Z,74.86
2018-01-25T13:59:12.507Z,75.65
2018-01-25T14:01:40.477Z,75.27
2018-01-25T14:04:08.389Z,75.37
2018-01-25T14:06:36.324Z,74.72
2018-01-25T14:09:04.213Z,74.95
2018-01-25T14:11:32.440Z,75.36
2018-01-25T14:14:00.535Z,76.79
2018-01-25T14:16:28.553Z,77.80
2018-01-25T14:18:56.465Z,76.92
2018-01-25T14:21:24.393Z,76.47
2018-01-25T14:23:52.378Z,76.37
2018-01-25T14:26:20.310Z,75.42
2018-01-25T14:28:48.262Z,76.74
2018-01-25T14:31:16.299Z,77.25
2018-01-25T14:33:44.253Z,77.08
2018-01-25T14:36:12.141Z,77.47
2018-01-25T14:38:40.072Z,78.43
2018-01-25T14:41:08.002Z,77.77
2018-01-25T14:43:35.934Z,78.51
2018-01-25T14:46:03.865Z,79.40
2018-01-25T14:48:31.808Z,78.85
2018-01-25T14:50:59.777Z,79.24
2018-01-25T14:53:27.711Z,79.79
2018-01-25T14:55:55.613Z,79.21
2018-01-25T14:58:23.617Z,79.97
2018-01-25T15:00:51.561Z,80.58
2018-01-25T15:03:19.590Z,80.22
2018-01-25T15:05:47.526Z,80.72
2018-01-25T15:08:15.459Z,80.52
2018-01-25T15:10:43.461Z,80.69
2018-01-25T15:13:11.412Z,80.91
2018-01-25T15:15:39.706Z,80.98
2018-01-25T15:18:07.643Z,80.65
2018-01-25T15:20:35.566Z,80.78
2018-01-25T15:23:03.506Z,81.22
2018-01-25T15:28:33.786Z,81.10
2018-01-25T15:31:01.856Z,80.98
2018-01-25T15:33:29.769Z,80.71
2018-01-25T15:35:58.370Z,81.46
2018-01-25T15:38:26.381Z,82.39
2018-01-25T15:40:54.305Z,82.57
2018-01-25T15:43:22.456Z,82.49
2018-01-25T15:45:50.398Z,82.80
2018-01-25T15:48:18.363Z,83.01
2018-01-25T15:50:47.116Z,82.74
2018-01-25T15:53:15.076Z,82.80
2018-01-25T15:55:43.028Z,82.95
2018-01-25T15:58:11.042Z,83.45
2018-01-25T16:00:38.968Z,83.26
2018-01-25T16:03:06.914Z,83.04
2018-01-25T16:05:34.842Z,82.67
2018-01-25T16:08:02.764Z,83.10
2018-01-25T16:10:30.716Z,83.22
2018-01-25T16:12:58.684Z,84.41
2018-01-25T16:15:26.594Z,83.45
2018-01-25T16:17:54.515Z,83.66
2018-01-25T16:20:22.455Z,84.39
2018-01-25T16:22:50.370Z,83.86
2018-01-25T16:25:18.316Z,83.58
2018-01-25T16:27:46.233Z,84.35
2018-01-25T16:30:14.178Z,83.97
2018-01-25T16:32:42.810Z,84.61
2018-01-25T16:35:10.712Z,84.81
2018-01-25T16:37:38.647Z,85.00
2018-01-25T16:40:06.579Z,85.70
2018-01-25T16:42:34.569Z,85.00
2018-01-25T16:45:02.489Z,85.33
2018-01-25T16:47:30.414Z,85.19
2018-01-25T16:49:58.449Z,85.54
2018-01-25T16:52:26.392Z,85.77
2018-01-25T16:54:54.393Z,86.10
2018-01-25T16:57:22.294Z,86.03
2018-01-25T16:59:50.216Z,86.13
2018-01-25T17:02:18.140Z,86.09
2018-01-25T17:04:46.106Z,87.07
2018-01-25T17:07:14.075Z,87.24
2018-01-25T17:09:42.038Z,86.43
2018-01-25T17:12:09.991Z,86.06
2018-01-25T17:14:37.930Z,86.76
2018-01-25T17:17:05.846Z,86.62
2018-01-25T17:19:33.777Z,86.90
2018-01-25T17:22:01.713Z,86.38
2018-01-25T17:24:29.671Z,86.58
2018-01-25T17:26:57.748Z,86.63
2018-01-25T17:29:26.077Z,86.67
2018-01-25T17:31:53.991Z,86.89
2018-01-25T17:34:21.896Z,87.36
2018-01-25T17:36:49.820Z,87.50
2018-01-25T17:39:17.797Z,87.83
2018-01-25T17:41:45.869Z,87.55
2018-01-25T17:44:13.844Z,87.80
2018-01-25T17:46:41.947Z,87.74
2018-01-25T17:49:09.897Z,88.55
2018-01-25T17:51:38.289Z,88.06
2018-01-25T17:54:06.228Z,88.76
2018-01-25T17:56:34.182Z,88.28
2018-01-25T17:59:02.186Z,88.12
2018-01-25T18:01:30.281Z,88.41
2018-01-25T18:03:58.274Z,88.44
2018-01-25T18:06:26.451Z,88.01
2018-01-25T18:08:55.332Z,88.21
2018-01-25T18:11:23.418Z,88.09
2018-01-25T18:13:51.369Z,87.93
2018-01-25T18:16:19.397Z,87.19
2018-01-25T18:18:47.465Z,87.75
2018-01-25T18:21:15.644Z,87.99
2018-01-25T18:23:43.705Z,87.86
2018-01-25T18:26:11.711Z,88.26
2018-01-25T18:28:39.799Z,87.86
2018-01-25T18:31:07.729Z,87.87
2018-01-25T18:33:35.887Z,87.75
2018-01-25T18:36:03.820Z,88.17
2018-01-25T18:38:32.748Z,89.02
2018-01-25T18:41:00.781Z,88.14
2018-01-25T18:43:28.735Z,87.96
2018-01-25T18:45:57.208Z,88.23
2018-01-25T18:48:25.154Z,88.60
2018-01-25T18:50:53.161Z,88.76
2018-01-25T18:53:21.130Z,88.25
2018-01-25T18:55:49.064Z,88.12
2018-01-25T18:58:17.010Z,88.41
2018-01-25T19:00:44.924Z,88.52
2018-01-25T19:03:12.853Z,88.05
2018-01-25T19:05:40.828Z,88.41
2018-01-25T19:08:08.818Z,88.50
2018-01-25T19:10:36.793Z,88.28
2018-01-25T19:13:04.727Z,88.21
2018-01-25T19:15:32.754Z,88.36
2018-01-25T19:18:01.353Z,88.47
2018-01-25T19:20:29.279Z,88.85
2018-01-25T19:22:57.217Z,88.72
2018-01-25T19:25:25.142Z,89.03
2018-01-25T19:27:53.067Z,89.67
2018-01-25T19:30:21.128Z,89.15
2018-01-25T19:32:49.088Z,89.12
2018-01-25T19:35:17.099Z,90.95
2018-01-25T19:37:45.021Z,89.38
2018-01-25T19:40:12.986Z,88.99
2018-01-25T19:42:40.901Z,88.31
2018-01-25T19:45:08.839Z,87.80
2018-01-25T19:47:36.767Z,87.93
2018-01-25T19:50:04.780Z,89.03
2018-01-25T19:52:32.714Z,88.98
2018-01-25T19:55:00.668Z,88.76
2018-01-25T19:57:28.658Z,88.79
2018-01-25T19:59:56.588Z,88.93
2018-01-25T20:02:24.588Z,88.99
2018-01-25T20:04:52.498Z,89.00
2018-01-25T20:07:20.434Z,88.55
2018-01-25T20:09:48.470Z,88.81
2018-01-25T20:12:16.442Z,88.99
2018-01-25T20:14:44.712Z,89.15
2018-01-25T20:17:12.676Z,89.25
2018-01-25T20:19:41.444Z,89.10
2018-01-25T20:22:09.674Z,89.04
2018-01-25T20:24:37.608Z,88.97
2018-01-25T20:27:05.539Z,89.53
2018-01-25T20:29:33.469Z,88.81
2018-01-25T20:32:01.389Z,89.17
2018-01-25T20:34:29.341Z,89.34
2018-01-25T20:36:57.279Z,89.80
2018-01-25T20:39:25.199Z,89.74
2018-01-25T20:41:53.134Z,89.51
2018-01-25T20:44:21.059Z,89.14
2018-01-25T20:46:49.099Z,89.64
2018-01-25T20:49:17.086Z,90.21
2018-01-25T20:51:45.038Z,90.29
2018-01-25T20:54:13.080Z,90.37
2018-01-25T20:56:41.037Z,90.73
2018-01-25T20:59:08.978Z,90.48
2018-01-25T21:01:37.383Z,90.56
2018-01-25T21:04:05.375Z,90.80
2018-01-25T21:06:33.324Z,90.59
2018-01-25T21:09:01.272Z,90.59
2018-01-25T21:11:29.189Z,90.10
2018-01-25T21:13:57.121Z,89.79
2018-01-25T21:16:25.086Z,90.06
2018-01-25T21:18:53.006Z,90.31
2018-01-25T21:21:21.066Z,90.54
2018-01-25T21:23:48.997Z,89.95
2018-01-25T21:26:16.950Z,90.19
2018-01-25T21:28:44.894Z,90.15
2018-01-25T21:31:12.820Z,90.02
2018-01-25T21:33:40.755Z,89.77
2018-01-25T21:36:08.658Z,89.84
2018-01-25T21:38:36.616Z,90.06
2018-01-25T21:41:04.533Z,89.66
2018-01-25T21:43:32.493Z,90.48
2018-01-25T21:46:00.400Z,90.24
2018-01-25T21:48:28.452Z,90.49
2018-01-25T21:50:56.681Z,90.15
2018-01-25T21:53:24.672Z,90.96
2018-01-25T21:55:52.818Z,90.31
2018-01-25T21:58:20.784Z,89.85
2018-01-25T22:00:48.765Z,90.39
2018-01-25T22:03:16.695Z,90.22
2018-01-25T22:05:44.632Z,90.37
2018-01-25T22:08:12.545Z,91.17
2018-01-25T22:10:40.521Z,90.92
2018-01-25T22:13:08.487Z,90.75
2018-01-25T22:15:36.406Z,90.76
2018-01-25T22:18:04.351Z,90.47
2018-01-25T22:20:32.377Z,90.50
2018-01-25T22:23:00.315Z,90.75
2018-01-25T22:25:28.234Z,90.58
2018-01-25T22:27:56.180Z,90.38
2018-01-25T22:30:24.122Z,90.81
2018-01-25T22:32:52.067Z,90.75
2018-01-25T22:35:20.063Z,91.06
2018-01-25T22:37:48.171Z,91.17
2018-01-25T22:40:16.461Z,90.88
2018-01-25T22:42:44.381Z,90.37
2018-01-25T22:45:12.924Z,90.50
2018-01-25T22:47:40.856Z,90.60
2018-01-25T22:50:08.766Z,91.00
2018-01-25T22:52:36.797Z,90.41
2018-01-25T22:55:04.738Z,90.62
2018-01-25T22:57:32.709Z,90.91
2018-01-25T23:00:00.678Z,90.85
2018-01-25T23:02:28.597Z,90.76
2018-01-25T23:04:56.570Z,90.55
2018-01-25T23:07:24.533Z,90.76
2018-01-25T23:09:52.452Z,91.21
2018-01-25T23:12:20.573Z,91.28
2018-01-25T23:14:48.500Z,91.17
2018-01-25T23:17:16.625Z,90.92
2018-01-25T23:19:44.706Z,90.93
2018-01-25T23:22:12.699Z,90.92
2018-01-25T23:24:40.764Z,90.58
2018-01-25T23:27:08.698Z,90.34
2018-01-25T23:29:36.706Z,90.64
2018-01-25T23:32:04.667Z,90.41
2018-01-25T23:34:32.743Z,89.94
2018-01-25T23:37:01.441Z,90.15
2018-01-25T23:39:29.511Z,90.72
2018-01-25T23:41:57.439Z,90.94
2018-01-25T23:44:25.349Z,90.63
2018-01-25T23:46:53.310Z,91.02
2018-01-25T23:49:21.874Z,91.51
2018-01-25T23:51:49.868Z,91.31
2018-01-25T23:54:17.841Z,91.43
2018-01-25T23:56:45.790Z,91.52
2018-01-25T23:59:13.908Z,91.62
